Time;durP1;ratioP1;P1;durP2;ratioP2;P2;SDS_P1;SDS_P2;PMS_P1;PMS_P2;Temp;Humidity;BMP_temperature;BMP_pressure;BME280_temperature;BME280_humidity;BME280_pressure;Samples;Min_cycle;Max_cycle;Signal;HPM_P1;HPM_P2
2024/03/25 00:00:56;;;;;;;;;;;;;;;21.88;29.74;100681.31;4100682;29;20366;-73
2024/03/25 00:02:56;;;;;;;;;;;;;;;21.87;29.99;100679.63;4100818;29;20008;-72
2024/03/25 00:04:57;;;;;;;;;;;;;;;21.85;29.95;100678.91;4100743;29;19968;-73
2024/03/25 00:06:58;;;;;;;;;;;;;;;21.83;30.07;100683.53;4100514;29;19977;-72
2024/03/25 00:09:01;;;;;;;;;;;;;;;21.81;29.72;100683.69;4100430;29;19974;-73
2024/03/25 00:11:02;;;;;;;;;;;;;;;21.78;29.72;100678.56;4100625;29;19923;-73
2024/03/25 00:13:03;;;;;;;;;;;;;;;21.77;30.09;100673.34;4084501;29;19945;-73
2024/03/25 00:15:04;;;;;;;;;;;;;;;21.75;30.11;100668.13;4100760;29;19933;-73
2024/03/25 00:17:07;;;;;;;;;;;;;;;21.76;30.00;100663.63;4100229;29;19922;-72
2024/03/25 00:19:08;;;;;;;;;;;;;;;21.78;30.05;100662.50;4100557;29;19935;-73
2024/03/25 00:21:09;;;;;;;;;;;;;;;21.81;30.04;100662.28;4100465;29;20440;-73
2024/03/25 00:23:11;;;;;;;;;;;;;;;21.83;29.75;100660.28;4100182;29;19929;-74
2024/03/25 00:25:12;;;;;;;;;;;;;;;21.83;29.78;100662.97;4100592;29;19938;-74
2024/03/25 00:27:13;;;;;;;;;;;;;;;21.84;29.98;100658.47;4100520;29;19922;-73
2024/03/25 00:29:14;;;;;;;;;;;;;;;21.85;29.82;100665.53;4084370;29;19935;-72
2024/03/25 00:31:15;;;;;;;;;;;;;;;21.82;29.85;100660.44;4100285;29;20365;-72
2024/03/25 00:33:16;;;;;;;;;;;;;;;21.81;29.75;100664.94;4100053;29;19923;-73
2024/03/25 00:35:18;;;;;;;;;;;;;;;21.77;29.88;100657.28;4100310;29;20000;-72
2024/03/25 00:37:18;;;;;;;;;;;;;;;21.76;29.93;100658.28;4099769;29;20385;-73
2024/03/25 00:39:19;;;;;;;;;;;;;;;21.72;29.71;100657.69;4104430;28;19956;-72
2024/03/25 00:41:20;;;;;;;;;;;;;;;21.70;30.12;100649.78;4104363;28;19922;-73
2024/03/25 00:43:21;;;;;;;;;;;;;;;21.70;29.84;100648.91;4100002;29;19992;-73
2024/03/25 00:45:22;;;;;;;;;;;;;;;21.71;30.22;100645.25;4100122;29;20013;-73
2024/03/25 00:47:22;;;;;;;;;;;;;;;21.74;29.91;100642.34;4099915;29;19922;-74
2024/03/25 00:49:23;;;;;;;;;;;;;;;21.77;29.85;100641.22;4100146;29;19929;-73
2024/03/25 00:51:24;;;;;;;;;;;;;;;21.78;29.94;100640.25;4100013;28;19969;-74
2024/03/25 00:53:25;;;;;;;;;;;;;;;21.77;29.72;100630.53;4099212;29;19930;-73
2024/03/25 00:55:26;;;;;;;;;;;;;;;21.78;29.94;100627.72;4100173;29;19923;-73
2024/03/25 00:57:27;;;;;;;;;;;;;;;21.78;29.65;100625.03;4099921;29;20461;-74
2024/03/25 00:59:28;;;;;;;;;;;;;;;21.76;30.05;100623.47;4100003;29;19922;-73
2024/03/25 01:01:29;;;;;;;;;;;;;;;21.75;29.99;100619.09;4100102;29;20467;-73
2024/03/25 01:03:30;;;;;;;;;;;;;;;21.72;29.79;100614.84;4099755;29;19923;-72
2024/03/25 01:05:31;;;;;;;;;;;;;;;21.70;29.96;100616.78;4100027;29;19934;-73
2024/03/25 01:07:32;;;;;;;;;;;;;;;21.69;29.96;100604.41;4099365;29;20013;-73
2024/03/25 01:09:33;;;;;;;;;;;;;;;21.69;30.13;100604.41;4099596;29;19934;-73
2024/03/25 01:11:34;;;;;;;;;;;;;;;21.69;29.91;100597.22;4099852;29;19971;-73
2024/03/25 01:13:35;;;;;;;;;;;;;;;21.69;29.97;100591.03;4099677;29;19977;-73
2024/03/25 01:15:36;;;;;;;;;;;;;;;21.73;30.16;100584.44;4099504;29;19932;-72
2024/03/25 01:17:37;;;;;;;;;;;;;;;21.74;30.08;100585.25;4099398;29;19930;-73
2024/03/25 01:19:38;;;;;;;;;;;;;;;21.72;30.19;100580.06;4099681;29;19922;-72
2024/03/25 01:21:38;;;;;;;;;;;;;;;21.73;30.19;100578.25;4099195;29;19974;-73
2024/03/25 01:23:39;;;;;;;;;;;;;;;21.75;29.81;100578.94;4099473;29;19961;-73
2024/03/25 01:25:40;;;;;;;;;;;;;;;21.74;29.87;100569.22;4099739;29;19930;-72
2024/03/25 01:27:41;;;;;;;;;;;;;;;21.70;30.18;100572.16;4099671;29;19961;-73
2024/03/25 01:29:42;;;;;;;;;;;;;;;21.67;30.10;100585.78;4099591;29;20000;-73
2024/03/25 01:31:43;;;;;;;;;;;;;;;21.66;29.80;100583.25;4099565;29;19962;-73
2024/03/25 01:33:44;;;;;;;;;;;;;;;21.63;30.18;100584.38;4099605;29;19922;-72
2024/03/25 01:35:45;;;;;;;;;;;;;;;21.64;30.13;100575.34;4099163;29;20336;-73
2024/03/25 01:37:46;;;;;;;;;;;;;;;21.63;30.14;100562.09;4099321;29;19926;-72
2024/03/25 01:39:47;;;;;;;;;;;;;;;21.66;30.16;100561.84;4107303;28;20439;-73
2024/03/25 01:41:47;;;;;;;;;;;;;;;21.68;29.75;100554.53;4099914;28;19964;-71
2024/03/25 01:43:48;;;;;;;;;;;;;;;21.69;30.12;100556.25;4099331;29;20387;-72
2024/03/25 01:45:51;;;;;;;;;;;;;;;21.69;30.13;100541.00;4099289;29;19977;-74
2024/03/25 01:47:52;;;;;;;;;;;;;;;21.71;30.14;100548.91;4099465;29;20301;-74
2024/03/25 01:49:56;;;;;;;;;;;;;;;21.70;30.12;100537.38;4098816;29;19922;-72
2024/03/25 01:51:57;;;;;;;;;;;;;;;21.72;29.82;100537.22;4099241;29;19923;-73
2024/03/25 01:53:59;;;;;;;;;;;;;;;21.68;30.19;100535.81;4098919;29;19922;-73
2024/03/25 01:55:59;;;;;;;;;;;;;;;21.64;30.22;100537.88;4099062;29;19937;-73
2024/03/25 01:58:01;;;;;;;;;;;;;;;21.65;29.79;100536.06;4099267;29;19922;-73
2024/03/25 02:00:02;;;;;;;;;;;;;;;21.62;29.90;100533.66;4098899;29;19923;-73
2024/03/25 02:02:04;;;;;;;;;;;;;;;21.61;30.25;100526.59;4099180;29;19994;-73
2024/03/25 02:04:05;;;;;;;;;;;;;;;21.57;30.05;100514.44;4097615;28;19929;-73
2024/03/25 02:06:08;;;;;;;;;;;;;;;21.60;30.32;100516.88;4098975;29;19922;-73
2024/03/25 02:08:10;;;;;;;;;;;;;;;21.62;30.23;100501.53;4098840;29;19927;-74
2024/03/25 02:10:14;;;;;;;;;;;;;;;21.62;29.98;100505.06;4098843;29;20386;-73
2024/03/25 02:12:15;;;;;;;;;;;;;;;21.66;29.84;100500.28;4098858;29;20286;-73
2024/03/25 02:14:16;;;;;;;;;;;;;;;21.68;29.84;100495.66;4098728;29;19929;-72
2024/03/25 02:16:17;;;;;;;;;;;;;;;21.68;30.00;100491.13;4098808;29;19922;-72
2024/03/25 02:18:18;;;;;;;;;;;;;;;21.68;29.84;100482.28;4098643;29;19933;-73
2024/03/25 02:20:19;;;;;;;;;;;;;;;21.66;29.98;100486.91;4098363;29;19955;-72
2024/03/25 02:22:19;;;;;;;;;;;;;;;21.63;29.98;100474.63;4098781;29;20005;-72
2024/03/25 02:24:20;;;;;;;;;;;;;;;21.62;30.09;100478.28;4098597;29;19926;-72
2024/03/25 02:26:23;;;;;;;;;;;;;;;21.60;30.06;100476.72;4082659;29;20467;-72
2024/03/25 02:28:24;;;;;;;;;;;;;;;21.59;30.17;100475.88;4098765;29;19928;-73
2024/03/25 02:30:25;;;;;;;;;;;;;;;21.57;30.01;100474.31;4098519;29;19929;-73
2024/03/25 02:32:26;;;;;;;;;;;;;;;21.58;30.04;100471.50;4098781;29;20016;-72
2024/03/25 02:34:26;;;;;;;;;;;;;;;21.57;29.85;100471.63;4098010;29;19973;-73
2024/03/25 02:36:27;;;;;;;;;;;;;;;21.58;30.22;100468.84;4098387;29;19922;-73
2024/03/25 02:38:28;;;;;;;;;;;;;;;21.61;30.05;100468.56;4098676;29;19928;-72
2024/03/25 02:40:29;;;;;;;;;;;;;;;21.65;29.99;100469.13;4106941;28;19923;-72
2024/03/25 02:42:32;;;;;;;;;;;;;;;21.66;30.03;100469.00;4082736;29;19922;-73
2024/03/25 02:44:33;;;;;;;;;;;;;;;21.65;29.76;100461.97;4098340;29;19922;-72
2024/03/25 02:46:34;;;;;;;;;;;;;;;21.63;29.95;100463.94;4098264;29;19929;-73
2024/03/25 02:48:35;;;;;;;;;;;;;;;21.59;30.25;100470.50;4097933;29;20425;-73
2024/03/25 02:50:35;;;;;;;;;;;;;;;21.58;30.33;100455.47;4098474;29;20026;-72
2024/03/25 02:52:36;;;;;;;;;;;;;;;21.59;30.03;100456.28;4082421;29;19922;-72
2024/03/25 02:54:37;;;;;;;;;;;;;;;21.55;30.13;100456.50;4098013;29;19930;-72
2024/03/25 02:56:39;;;;;;;;;;;;;;;21.53;30.33;100452.28;4082374;29;20186;-72
2024/03/25 02:58:40;;;;;;;;;;;;;;;21.54;30.24;100449.50;4098397;29;20467;-73
2024/03/25 03:00:41;;;;;;;;;;;;;;;21.54;30.20;100451.31;4098277;29;19923;-72
2024/03/25 03:02:42;;;;;;;;;;;;;;;21.55;29.90;100453.84;4097910;29;19926;-72
2024/03/25 03:04:42;;;;;;;;;;;;;;;21.56;30.01;100446.69;4098521;29;19923;-73
2024/03/25 03:06:43;;;;;;;;;;;;;;;21.58;30.11;100444.75;4098211;29;19958;-73
2024/03/25 03:08:44;;;;;;;;;;;;;;;21.60;29.88;100448.13;4098418;29;19922;-74
2024/03/25 03:10:45;;;;;;;;;;;;;;;21.60;30.29;100439.25;4098273;29;19928;-73
2024/03/25 03:12:46;;;;;;;;;;;;;;;21.60;30.16;100440.09;4098226;29;20022;-73
2024/03/25 03:14:47;;;;;;;;;;;;;;;21.57;29.96;100439.50;4098290;28;19927;-73
2024/03/25 03:16:49;;;;;;;;;;;;;;;21.57;30.19;100436.84;4101199;29;19923;-73
2024/03/25 03:18:50;;;;;;;;;;;;;;;21.55;30.18;100440.47;4101353;29;19923;-73
2024/03/25 03:20:51;;;;;;;;;;;;;;;21.53;29.95;100437.09;4101401;29;19960;-75
2024/03/25 03:22:51;;;;;;;;;;;;;;;21.51;29.88;100431.00;4101304;29;19926;-73
2024/03/25 03:24:52;;;;;;;;;;;;;;;21.49;30.10;100435.63;4101182;29;20032;-74
2024/03/25 03:26:53;;;;;;;;;;;;;;;21.48;30.04;100433.09;4101339;29;19929;-72
2024/03/25 03:28:54;;;;;;;;;;;;;;;21.50;30.25;100428.47;4101294;29;19983;-72
2024/03/25 03:30:55;;;;;;;;;;;;;;;21.53;29.99;100423.72;4101248;29;19922;-73
2024/03/25 03:32:55;;;;;;;;;;;;;;;21.53;29.87;100412.13;4100982;29;20016;-72
2024/03/25 03:34:56;;;;;;;;;;;;;;;21.55;30.33;100408.34;4101104;29;19958;-72
2024/03/25 03:36:58;;;;;;;;;;;;;;;21.57;29.94;100405.59;4085378;29;19923;-72
2024/03/25 03:38:58;;;;;;;;;;;;;;;21.60;30.04;100405.31;4102670;28;20389;-72
2024/03/25 03:41:00;;;;;;;;;;;;;;;21.57;29.93;100400.25;4108078;28;19977;-74
2024/03/25 03:43:01;;;;;;;;;;;;;;;21.53;29.94;100398.75;4085382;29;19922;-72
2024/03/25 03:45:02;;;;;;;;;;;;;;;21.51;29.99;100398.91;4101113;29;19953;-75
2024/03/25 03:47:03;;;;;;;;;;;;;;;21.49;30.10;100398.19;4100679;29;19922;-72
2024/03/25 03:49:04;;;;;;;;;;;;;;;21.47;29.99;100401.97;4101119;29;20029;-73
2024/03/25 03:51:05;;;;;;;;;;;;;;;21.46;29.99;100400.28;4101041;29;19973;-72
2024/03/25 03:53:06;;;;;;;;;;;;;;;21.44;29.93;100391.56;4100770;29;20402;-72
2024/03/25 03:55:07;;;;;;;;;;;;;;;21.47;30.35;100386.78;4101087;29;19922;-74
2024/03/25 03:57:08;;;;;;;;;;;;;;;21.50;29.87;100383.81;4100917;29;19922;-74
2024/03/25 03:59:08;;;;;;;;;;;;;;;21.53;30.24;100383.56;4101120;29;19933;-74
2024/03/25 04:01:18;;;;;;;;;;;;;;;21.52;30.06;100381.88;4100549;29;19976;-72
2024/03/25 04:03:19;;;;;;;;;;;;;;;21.55;29.77;100372.72;4100700;29;19969;-73
2024/03/25 04:05:20;;;;;;;;;;;;;;;21.54;29.76;100376.38;4100793;29;19930;-73
2024/03/25 04:07:26;;;;;;;;;;;;;;;21.53;30.21;100370.19;4100607;29;19933;-72
2024/03/25 04:09:29;;;;;;;;;;;;;;;21.52;30.01;100370.34;4100974;29;19944;-72
2024/03/25 04:11:30;;;;;;;;;;;;;;;21.49;30.33;100366.06;4084521;29;19923;-72
2024/03/25 04:13:30;;;;;;;;;;;;;;;21.46;30.26;100370.84;4100430;29;19926;-72
2024/03/25 04:15:34;;;;;;;;;;;;;;;21.44;30.27;100362.97;4100090;29;19933;-73
2024/03/25 04:17:36;;;;;;;;;;;;;;;21.43;30.08;100358.59;4100399;29;19922;-73
2024/03/25 04:19:36;;;;;;;;;;;;;;;21.42;30.34;100359.56;4100486;29;19926;-73
2024/03/25 04:21:39;;;;;;;;;;;;;;;21.41;30.16;100357.91;4100348;29;20382;-73
2024/03/25 04:23:40;;;;;;;;;;;;;;;21.44;30.23;100351.44;4100447;29;19977;-73
2024/03/25 04:25:41;;;;;;;;;;;;;;;21.48;30.17;100343.00;4100332;29;20056;-74
2024/03/25 04:27:42;;;;;;;;;;;;;;;21.49;29.84;100336.66;4099743;28;19929;-73
2024/03/25 04:29:43;;;;;;;;;;;;;;;21.50;30.03;100333.00;4100132;29;20326;-72
2024/03/25 04:31:44;;;;;;;;;;;;;;;21.52;30.18;100335.56;4100309;29;19958;-73
2024/03/25 04:33:45;;;;;;;;;;;;;;;21.50;30.23;100338.34;4084508;29;19929;-75
2024/03/25 04:35:47;;;;;;;;;;;;;;;21.48;30.10;100321.59;4100461;29;19922;-73
2024/03/25 04:37:47;;;;;;;;;;;;;;;21.46;29.97;100328.91;4100163;29;19922;-74
2024/03/25 04:39:48;;;;;;;;;;;;;;;21.43;30.24;100322.97;4108435;28;20013;-73
2024/03/25 04:41:49;;;;;;;;;;;;;;;21.39;30.07;100323.22;4100490;28;19922;-73
2024/03/25 04:43:50;;;;;;;;;;;;;;;21.38;30.36;100316.19;4099977;29;19922;-74
2024/03/25 04:45:50;;;;;;;;;;;;;;;21.38;30.31;100318.03;4084126;29;20013;-75
2024/03/25 04:47:51;;;;;;;;;;;;;;;21.38;30.26;100318.03;4100296;29;19923;-72
2024/03/25 04:49:52;;;;;;;;;;;;;;;21.40;30.16;100316.06;4099925;29;20004;-74
2024/03/25 04:51:54;;;;;;;;;;;;;;;21.41;30.31;100312.41;4100168;29;20017;-74
2024/03/25 04:53:55;;;;;;;;;;;;;;;21.46;30.18;100314.66;4100053;29;20051;-73
2024/03/25 04:55:55;;;;;;;;;;;;;;;21.47;29.96;100309.19;4100077;29;19922;-74
2024/03/25 04:57:56;;;;;;;;;;;;;;;21.48;30.14;100318.06;4100073;29;19989;-73
2024/03/25 04:59:58;;;;;;;;;;;;;;;21.46;30.23;100315.53;4099360;29;19922;-72
2024/03/25 05:01:58;;;;;;;;;;;;;;;21.45;30.18;100315.66;4099838;29;19922;-73
2024/03/25 05:03:59;;;;;;;;;;;;;;;21.42;30.23;100314.09;4099998;29;20018;-72
2024/03/25 05:06:00;;;;;;;;;;;;;;;21.42;30.18;100310.56;4099862;29;20437;-72
2024/03/25 05:08:03;;;;;;;;;;;;;;;21.38;30.31;100310.84;4099810;29;20344;-72
2024/03/25 05:10:04;;;;;;;;;;;;;;;21.35;30.27;100305.78;4099693;29;19922;-72
2024/03/25 05:12:05;;;;;;;;;;;;;;;21.34;30.34;100305.91;4099832;29;19986;-72
2024/03/25 05:14:06;;;;;;;;;;;;;;;21.33;29.98;100302.38;4099131;29;19922;-73
2024/03/25 05:16:07;;;;;;;;;;;;;;;21.35;30.22;100304.91;4099839;29;19923;-72
2024/03/25 05:18:08;;;;;;;;;;;;;;;21.36;30.01;100304.78;4099342;29;20333;-73
2024/03/25 05:20:11;;;;;;;;;;;;;;;21.40;30.30;100300.03;4099695;29;19930;-73
2024/03/25 05:22:12;;;;;;;;;;;;;;;21.42;30.31;100295.34;4099550;29;20089;-72
2024/03/25 05:24:13;;;;;;;;;;;;;;;21.43;29.98;100306.94;4099541;29;19926;-72
2024/03/25 05:26:14;;;;;;;;;;;;;;;21.42;30.05;100302.56;4099169;29;19926;-72
2024/03/25 05:28:15;;;;;;;;;;;;;;;21.39;30.01;100301.00;4099136;29;19926;-72
2024/03/25 05:30:16;;;;;;;;;;;;;;;21.39;30.17;100301.00;4099446;29;19974;-72
2024/03/25 05:32:17;;;;;;;;;;;;;;;21.36;30.33;100291.41;4099358;29;20267;-71
2024/03/25 05:34:18;;;;;;;;;;;;;;;21.36;29.90;100291.41;4099202;29;19926;-74
2024/03/25 05:36:19;;;;;;;;;;;;;;;21.33;30.32;100291.69;4099318;29;19984;-73
2024/03/25 05:38:19;;;;;;;;;;;;;;;21.32;30.35;100295.31;4083052;29;19929;-74
2024/03/25 05:40:20;;;;;;;;;;;;;;;21.32;29.97;100297.16;4107991;28;19930;-73
2024/03/25 05:42:21;;;;;;;;;;;;;;;21.33;30.22;100299.69;4098734;29;19922;-71
2024/03/25 05:44:22;;;;;;;;;;;;;;;21.34;30.40;100295.22;4099357;29;19930;-73
2024/03/25 05:46:23;;;;;;;;;;;;;;;21.35;30.24;100289.72;4099178;29;19926;-73
2024/03/25 05:48:25;;;;;;;;;;;;;;;21.37;30.05;100292.25;4099279;29;19922;-73
2024/03/25 05:50:26;;;;;;;;;;;;;;;21.40;30.24;100292.00;4099222;29;19927;-74
2024/03/25 05:52:28;;;;;;;;;;;;;;;21.39;30.10;100284.94;4099027;29;19922;-74
2024/03/25 05:54:29;;;;;;;;;;;;;;;21.39;29.98;100287.63;4098952;29;19929;-74
2024/03/25 05:56:30;;;;;;;;;;;;;;;21.37;30.19;100286.91;4098777;29;19922;-73
2024/03/25 05:58:31;;;;;;;;;;;;;;;21.34;30.24;100273.81;4098833;29;20471;-72
2024/03/25 06:00:32;;;;;;;;;;;;;;;21.34;30.04;100284.50;4098961;29;19922;-73
2024/03/25 06:02:33;;;;;;;;;;;;;;;21.33;30.03;100293.50;4098594;29;19973;-73
2024/03/25 06:04:33;;;;;;;;;;;;;;;21.31;30.30;100282.97;4099006;29;19933;-72
2024/03/25 06:06:34;;;;;;;;;;;;;;;21.30;30.13;100289.28;4098786;29;20286;-73
2024/03/25 06:08:37;;;;;;;;;;;;;;;21.29;30.18;100284.91;4098871;29;20025;-73
2024/03/25 06:10:37;;;;;;;;;;;;;;;21.32;30.07;100283.78;4098481;29;19927;-72
2024/03/25 06:12:38;;;;;;;;;;;;;;;21.33;30.38;100274.78;4098584;29;19965;-73
2024/03/25 06:14:39;;;;;;;;;;;;;;;21.35;29.97;100268.31;4098809;29;19937;-73
2024/03/25 06:16:41;;;;;;;;;;;;;;;21.37;30.19;100270.84;4098543;29;19961;-73
2024/03/25 06:18:42;;;;;;;;;;;;;;;21.37;30.11;100271.72;4082857;29;20026;-72
2024/03/25 06:20:43;;;;;;;;;;;;;;;21.35;30.19;100264.78;4098874;29;19922;-72
2024/03/25 06:22:43;;;;;;;;;;;;;;;21.36;29.95;100266.47;4098642;29;20358;-72
2024/03/25 06:24:44;;;;;;;;;;;;;;;21.33;30.23;100266.75;4098674;29;19930;-72
2024/03/25 06:26:45;;;;;;;;;;;;;;;21.31;29.92;100258.88;4098203;29;20377;-71
2024/03/25 06:28:47;;;;;;;;;;;;;;;21.29;30.00;100254.63;4082899;29;19922;-74
2024/03/25 06:35:27;;;;;;;;;;;;;;;21.28;30.05;100255.63;4098504;29;19942;-74
2024/03/25 06:37:28;;;;;;;;;;;;;;;21.29;29.99;100249.28;4098965;29;19944;-74
2024/03/25 06:39:29;;;;;;;;;;;;;;;21.31;30.10;100250.00;4088194;29;19928;-75
2024/03/25 06:41:30;;;;;;;;;;;;;;;21.31;29.92;100244.66;4085276;29;19922;-73
2024/03/25 06:43:31;;;;;;;;;;;;;;;21.34;30.01;100242.56;4098754;29;19927;-73
2024/03/25 06:45:32;;;;;;;;;;;;;;;21.34;30.15;100242.56;4098605;29;19962;-74
2024/03/25 06:47:32;;;;;;;;;;;;;;;21.34;30.01;100234.53;4082635;29;19932;-74
2024/03/25 06:49:33;;;;;;;;;;;;;;;21.33;30.15;100235.50;4098262;28;20377;-73
2024/03/25 06:51:34;;;;;;;;;;;;;;;21.31;30.14;100229.47;4098129;29;19922;-74
2024/03/25 06:53:35;;;;;;;;;;;;;;;21.30;29.94;100238.47;4098125;29;20404;-74
2024/03/25 06:55:36;;;;;;;;;;;;;;;21.29;30.30;100219.84;4082245;29;20013;-73
2024/03/25 06:57:37;;;;;;;;;;;;;;;21.26;30.27;100222.81;4098307;29;19922;-73
2024/03/25 06:59:38;;;;;;;;;;;;;;;21.25;30.30;100229.97;4098294;29;19922;-73
2024/03/25 07:01:38;;;;;;;;;;;;;;;21.24;30.13;100233.66;4082544;29;19926;-72
2024/03/25 07:03:40;;;;;;;;;;;;;;;21.26;30.16;100222.81;4098553;29;19926;-72
2024/03/25 07:05:41;;;;;;;;;;;;;;;21.29;29.91;100225.22;4098329;29;19936;-72
2024/03/25 07:07:42;;;;;;;;;;;;;;;21.32;30.09;100217.75;4098265;29;19922;-72
2024/03/25 07:09:43;;;;;;;;;;;;;;;21.32;30.20;100223.09;4097986;29;19922;-72
2024/03/25 07:11:46;;;;;;;;;;;;;;;21.32;30.12;100220.44;4098223;29;20017;-72
2024/03/25 07:13:47;;;;;;;;;;;;;;;21.33;30.15;100214.09;4098037;29;20419;-72
2024/03/25 07:15:48;;;;;;;;;;;;;;;21.33;30.07;100207.91;4098354;29;19922;-73
2024/03/25 07:17:49;;;;;;;;;;;;;;;21.33;29.88;100215.94;4082267;29;19923;-72
2024/03/25 07:19:49;;;;;;;;;;;;;;;21.31;29.90;100209.88;4098057;29;19926;-73
2024/03/25 07:21:50;;;;;;;;;;;;;;;21.28;30.23;100202.16;4097970;29;19922;-72
2024/03/25 07:23:51;;;;;;;;;;;;;;;21.29;29.79;100206.47;4097989;29;20013;-73
2024/03/25 07:25:52;;;;;;;;;;;;;;;21.25;29.88;100205.91;4082323;29;19923;-73
2024/03/25 07:27:53;;;;;;;;;;;;;;;21.27;30.19;100211.16;4098042;29;19922;-73
2024/03/25 07:29:54;;;;;;;;;;;;;;;21.32;30.14;100203.53;4097992;29;19926;-72
2024/03/25 07:31:55;;;;;;;;;;;;;;;21.36;29.74;100204.97;4097995;29;19977;-73
2024/03/25 07:33:55;;;;;;;;;;;;;;;21.42;29.92;100203.56;4097999;29;20368;-72
2024/03/25 07:35:56;;;;;;;;;;;;;;;21.41;29.94;100200.06;4098137;29;19922;-71
2024/03/25 07:37:58;;;;;;;;;;;;;;;21.42;29.92;100196.38;4097794;29;19922;-72
2024/03/25 07:39:59;;;;;;;;;;;;;;;21.45;30.08;100198.78;4106621;28;20364;-72
2024/03/25 07:41:59;;;;;;;;;;;;;;;21.47;29.90;100199.50;4097777;29;19969;-71
2024/03/25 07:44:01;;;;;;;;;;;;;;;21.49;29.64;100197.50;4097782;29;20322;-72
2024/03/25 07:46:02;;;;;;;;;;;;;;;21.50;29.58;100199.22;4098115;29;20301;-72
2024/03/25 07:48:03;;;;;;;;;;;;;;;21.49;29.58;100192.16;4097767;29;19929;-72
2024/03/25 07:50:05;;;;;;;;;;;;;;;21.46;29.95;100192.47;4098021;29;19926;-74
2024/03/25 07:52:06;;;;;;;;;;;;;;;21.46;29.67;100183.56;4097761;29;19929;-72
2024/03/25 07:54:09;;;;;;;;;;;;;;;21.46;29.89;100176.41;4097971;29;19929;-72
2024/03/25 07:56:10;;;;;;;;;;;;;;;21.48;29.83;100169.09;4098086;29;20287;-72
2024/03/25 07:58:11;;;;;;;;;;;;;;;21.48;29.70;100166.41;4097734;29;19933;-73
2024/03/25 08:00:12;;;;;;;;;;;;;;;21.51;29.59;100159.94;4097871;29;19926;-72
2024/03/25 08:02:13;;;;;;;;;;;;;;;21.52;29.78;100159.78;4100106;28;19928;-74
2024/03/25 08:04:14;;;;;;;;;;;;;;;21.52;29.65;100151.75;4100996;29;19922;-74
2024/03/25 08:06:15;;;;;;;;;;;;;;;21.53;29.68;100153.47;4085062;29;19930;-74
2024/03/25 08:08:16;;;;;;;;;;;;;;;21.54;29.63;100154.28;4100766;29;19928;-74
2024/03/25 08:10:16;;;;;;;;;;;;;;;21.58;29.61;100149.53;4100943;29;20346;-75
2024/03/25 08:12:17;;;;;;;;;;;;;;;21.59;29.61;100153.91;4100862;29;19922;-75
2024/03/25 08:14:18;;;;;;;;;;;;;;;21.57;29.58;100148.72;4100536;29;19985;-74
2024/03/25 08:16:19;;;;;;;;;;;;;;;21.57;29.63;100146.03;4100586;29;19977;-74
2024/03/25 08:18:20;;;;;;;;;;;;;;;21.56;29.80;100144.31;4100498;29;19922;-74
2024/03/25 08:20:21;;;;;;;;;;;;;;;21.57;29.58;100140.69;4100808;29;19930;-73
2024/03/25 08:22:22;;;;;;;;;;;;;;;21.59;29.78;100140.53;4084369;29;19966;-73
2024/03/25 08:24:23;;;;;;;;;;;;;;;21.57;29.57;100140.69;4100728;29;19922;-74
2024/03/25 08:26:23;;;;;;;;;;;;;;;21.55;29.92;100132.75;4100515;29;19978;-73
2024/03/25 08:28:24;;;;;;;;;;;;;;;21.57;29.83;100124.63;4100684;29;19981;-73
2024/03/25 08:30:25;;;;;;;;;;;;;;;21.55;29.54;100130.06;4100428;29;20021;-73
2024/03/25 08:32:26;;;;;;;;;;;;;;;21.59;29.78;100127.16;4100503;29;19998;-72
2024/03/25 08:34:27;;;;;;;;;;;;;;;21.58;29.64;100115.63;4100394;29;19965;-73
2024/03/25 08:36:28;;;;;;;;;;;;;;;21.61;29.53;100109.97;4099985;29;19958;-73
2024/03/25 08:38:29;;;;;;;;;;;;;;;21.62;29.92;100110.84;4100311;29;19926;-73
2024/03/25 08:40:30;;;;;;;;;;;;;;;21.62;29.53;100114.34;4108862;28;19926;-73
2024/03/25 08:42:30;;;;;;;;;;;;;;;21.62;29.66;100106.31;4099964;29;20373;-73
2024/03/25 08:44:31;;;;;;;;;;;;;;;21.62;29.59;100108.16;4100315;29;19926;-74
2024/03/25 08:46:32;;;;;;;;;;;;;;;21.62;29.69;100108.16;4084385;29;19958;-73
2024/03/25 08:48:33;;;;;;;;;;;;;;;21.62;29.71;100106.31;4099967;29;20393;-73
2024/03/25 08:50:34;;;;;;;;;;;;;;;21.62;29.44;100100.13;4100155;29;19958;-72
2024/03/25 08:52:34;;;;;;;;;;;;;;;21.63;29.66;100104.47;4100112;29;19946;-74
2024/03/25 08:54:35;;;;;;;;;;;;;;;21.60;29.88;100099.41;4100088;29;20390;-73
2024/03/25 08:56:36;;;;;;;;;;;;;;;21.60;29.84;100099.41;4100223;29;19997;-73
2024/03/25 08:58:37;;;;;;;;;;;;;;;21.60;29.75;100088.72;4099841;29;20437;-74
2024/03/25 09:00:38;;;;;;;;;;;;;;;21.63;29.83;100093.75;4099951;29;19938;-73
2024/03/25 09:02:39;;;;;;;;;;;;;;;21.65;29.59;100086.44;4100059;29;19922;-74
2024/03/25 09:04:40;;;;;;;;;;;;;;;21.67;29.59;100085.31;4099900;29;19923;-73
2024/03/25 09:06:40;;;;;;;;;;;;;;;21.67;29.61;100079.13;4099970;29;19978;-72
2024/03/25 09:11:04;;;;;;;;;;;;;;;21.66;29.85;100070.25;4099733;29;19922;-73
2024/03/25 09:13:05;;;;;;;;;;;;;;;21.68;29.58;100072.78;4099269;28;19922;-73
2024/03/25 09:15:06;;;;;;;;;;;;;;;21.66;29.73;100056.84;4099817;29;19922;-74
2024/03/25 09:17:07;;;;;;;;;;;;;;;21.67;29.90;100060.41;4099559;29;20025;-75
2024/03/25 09:19:07;;;;;;;;;;;;;;;21.64;29.70;100058.84;4099357;29;20020;-73
2024/03/25 09:21:08;;;;;;;;;;;;;;;21.66;29.83;100053.34;4099726;29;20254;-73
2024/03/25 09:23:09;;;;;;;;;;;;;;;21.66;29.68;100048.00;4099427;29;19932;-73
2024/03/25 09:25:10;;;;;;;;;;;;;;;21.67;29.77;100045.16;4099754;29;19966;-74
2024/03/25 09:27:11;;;;;;;;;;;;;;;21.67;30.00;100047.84;4099690;29;19922;-74
2024/03/25 09:29:12;;;;;;;;;;;;;;;21.69;29.95;100045.88;4099784;29;20446;-73
2024/03/25 09:31:13;;;;;;;;;;;;;;;21.72;29.76;100043.91;4099676;29;19928;-73
2024/03/25 09:33:14;;;;;;;;;;;;;;;21.70;29.78;100044.91;4099310;29;20429;-73
2024/03/25 09:35:15;;;;;;;;;;;;;;;21.70;29.78;100039.53;4099240;29;19929;-74
2024/03/25 09:37:16;;;;;;;;;;;;;;;21.67;29.57;100037.13;4083581;29;19923;-73
2024/03/25 09:39:17;;;;;;;;;;;;;;;21.67;29.92;100033.63;4103439;28;20028;-73
2024/03/25 09:41:18;;;;;;;;;;;;;;;21.66;29.90;100034.63;4103756;28;19923;-73
2024/03/25 09:43:32;;;;;;;;;;;;;;;21.64;30.14;100026.75;4099335;29;19978;-73
2024/03/25 09:45:33;;;;;;;;;;;;;;;21.63;29.83;100014.34;4099343;29;20404;-73
2024/03/25 09:47:34;;;;;;;;;;;;;;;21.64;29.75;100023.22;4099450;29;19928;-73
2024/03/25 09:49:35;;;;;;;;;;;;;;;21.67;30.14;100020.25;4098943;29;20394;-74
2024/03/25 09:51:36;;;;;;;;;;;;;;;21.66;30.17;100010.53;4083436;29;19923;-73
2024/03/25 09:53:37;;;;;;;;;;;;;;;21.67;30.09;100010.38;4099368;29;19973;-73
2024/03/25 09:55:38;;;;;;;;;;;;;;;21.68;30.15;100006.72;4099238;29;19950;-73
2024/03/25 09:57:40;;;;;;;;;;;;;;;21.69;30.22;100002.22;4099371;29;19923;-72
2024/03/25 09:59:41;;;;;;;;;;;;;;;21.69;29.84;99991.53;4099104;29;19922;-73
2024/03/25 10:01:42;;;;;;;;;;;;;;;21.68;30.17;99989.84;4098895;29;19993;-71
2024/03/25 10:03:43;;;;;;;;;;;;;;;21.70;29.82;99995.88;4098589;29;19969;-72
2024/03/25 10:05:44;;;;;;;;;;;;;;;21.69;30.19;99987.00;4099366;29;19922;-73
2024/03/25 10:07:45;;;;;;;;;;;;;;;21.67;30.20;99980.94;4099120;29;19934;-72
2024/03/25 10:09:46;;;;;;;;;;;;;;;21.68;30.14;99985.31;4098964;29;20009;-72
2024/03/25 10:11:48;;;;;;;;;;;;;;;21.69;30.14;99970.94;4098913;29;19922;-73
2024/03/25 10:13:48;;;;;;;;;;;;;;;21.69;30.27;99972.78;4098872;29;20039;-73
2024/03/25 10:15:49;;;;;;;;;;;;;;;21.69;29.94;99967.44;4098777;29;20400;-73
2024/03/25 10:17:52;;;;;;;;;;;;;;;21.71;30.06;99973.47;4098566;29;19923;-73
2024/03/25 10:19:54;;;;;;;;;;;;;;;21.71;29.95;99962.75;4098980;29;19949;-72
2024/03/25 10:22:04;;;;;;;;;;;;;;;21.70;30.05;99961.94;4098801;29;19923;-72
2024/03/25 10:24:05;;;;;;;;;;;;;;;21.73;30.08;99952.75;4098974;28;19922;-72
2024/03/25 10:26:06;;;;;;;;;;;;;;;21.74;30.37;99951.78;4098017;29;19969;-76
2024/03/25 10:28:08;;;;;;;;;;;;;;;21.76;30.03;99948.94;4098844;29;20206;-73
2024/03/25 10:30:09;;;;;;;;;;;;;;;21.74;30.16;99957.13;4098868;29;19922;-73